KDPG/DPG METAR and TAF weather

Enter ICAO airport designator
Station Type Date Time Source
KDPG METAR 2022/01/27 23:55 UTC NOAA

KDPG 272355Z 26004KT 40SM SKC 03/M09 A3052 RMK SLP352 T00261091 10034 21035 52003 LAST


Station Type Date Time Source
KDPG Decoded METAR 2022/01/27 23:55 UTC NOAA

Dugway Proving Grounds, UT, United States (KDPG) 40-10N 112-56W 1325M
Jan 27, 2022 - 06:55 PM EST / 2022.01.27 2355 UTC
Wind: from the W (260 degrees) at 5 MPH (4 KT):0
Visibility: 40 mile(s):0
Sky conditions: clear
Temperature: 36.7 F (2.6 C)
Dew Point: 15.6 F (-9.1 C)
Relative Humidity: 41%
Pressure (altimeter): 30.52 in. Hg (1033 hPa)
Pressure tendency: 0.01 inches (0.3 hPa) higher than three hours ago
ob: KDPG 272355Z 26004KT 40SM SKC 03/M09 A3052 RMK SLP352 T00261091 10034 21035 52003 LAST
cycle: 0

Station Type Date Time Source
KDPG TAF UTC NOAA

Error!

Example: see airport list